Time;durP1;ratioP1;P1;durP2;ratioP2;P2;SDS_P1;SDS_P2;PMS_P1;PMS_P2;Temp;Humidity;BMP_temperature;BMP_pressure;BME280_temperature;BME280_humidity;BME280_pressure;Samples;Min_cycle;Max_cycle;Signal;HPM_P1;HPM_P2
2023/10/13 00:01:04;;;;;;;;;;;;;;;13.69;100.00;97931.09;1227592;75;2908058;-70
2023/10/13 00:03:39;;;;;;;;;;;;;;;13.78;100.00;97941.16;1226942;83;2920304;-71
2023/10/13 00:06:12;;;;;;;;;;;;;;;13.85;100.00;97935.19;1227578;75;2902057;-68
2023/10/13 00:08:44;;;;;;;;;;;;;;;13.80;100.00;97935.91;1227564;75;2912196;-67
2023/10/13 00:11:18;;;;;;;;;;;;;;;13.75;100.00;97931.13;1226204;75;2912864;-68
2023/10/13 00:13:54;;;;;;;;;;;;;;;13.77;100.00;97940.41;1227546;75;2920195;-69
2023/10/13 00:16:28;;;;;;;;;;;;;;;13.65;100.00;97936.06;1226898;75;2918892;-69
2023/10/13 00:19:05;;;;;;;;;;;;;;;13.67;100.00;97935.59;1224632;75;2958805;-71
2023/10/13 00:21:38;;;;;;;;;;;;;;;13.62;100.00;97940.56;1227398;75;2920969;-69
2023/10/13 00:24:13;;;;;;;;;;;;;;;13.57;100.00;97935.78;1226746;75;2914088;-71
2023/10/13 00:26:46;;;;;;;;;;;;;;;13.60;100.00;97934.78;1226136;75;2916072;-68
2023/10/13 00:29:28;;;;;;;;;;;;;;;13.66;100.00;97928.56;1223535;75;3044154;-69
2023/10/13 00:32:02;;;;;;;;;;;;;;;13.69;100.00;97933.13;1226797;75;2911573;-68
2023/10/13 00:34:37;;;;;;;;;;;;;;;13.65;100.00;97927.81;1227354;75;2915072;-71
2023/10/13 00:37:17;;;;;;;;;;;;;;;13.58;100.00;97920.03;1226285;75;2911082;-66
2023/10/13 00:39:56;;;;;;;;;;;;;;;13.64;100.00;97923.56;1221799;75;3004063;-67
2023/10/13 00:42:47;;;;;;;;;;;;;;;13.53;100.00;97926.25;1222469;75;3177471;-68
2023/10/13 00:45:17;;;;;;;;;;;;;;;13.54;100.00;97925.75;1227025;75;2910816;-68
2023/10/13 00:47:56;;;;;;;;;;;;;;;13.40;100.00;97923.91;1227533;75;2916782;-69
2023/10/13 00:50:29;;;;;;;;;;;;;;;13.29;100.00;97921.06;1227045;75;2918593;-68
2023/10/13 00:53:02;;;;;;;;;;;;;;;13.34;100.00;97921.09;1227101;75;2917674;-68
2023/10/13 00:55:33;;;;;;;;;;;;;;;13.11;100.00;97913.88;1211996;75;4018761;-72
2023/10/13 00:58:07;;;;;;;;;;;;;;;12.92;100.00;97907.97;1227184;75;2910769;-72
2023/10/13 01:00:47;;;;;;;;;;;;;;;12.99;100.00;97915.78;1213698;75;3991411;-68
2023/10/13 01:03:25;;;;;;;;;;;;;;;12.98;100.00;97917.00;1228789;75;2909653;-67
2023/10/13 01:05:58;;;;;;;;;;;;;;;12.79;100.00;97913.81;1213504;75;3864074;-69
2023/10/13 01:08:37;;;;;;;;;;;;;;;12.96;100.00;97913.97;1226679;75;2915636;-70
2023/10/13 01:11:07;;;;;;;;;;;;;;;13.12;100.00;97913.38;1225086;75;2922952;-71
2023/10/13 01:13:41;;;;;;;;;;;;;;;13.02;100.00;97911.31;1227506;75;2840252;-67
2023/10/13 01:16:11;;;;;;;;;;;;;;;13.00;100.00;97906.28;1227119;83;2927835;-67
2023/10/13 01:18:47;;;;;;;;;;;;;;;13.02;100.00;97914.81;1229167;75;2840546;-69
2023/10/13 01:21:20;;;;;;;;;;;;;;;12.85;100.00;97914.63;1223739;75;3045521;-67
2023/10/13 01:23:55;;;;;;;;;;;;;;;12.88;100.00;97912.91;1226831;75;2921728;-69
2023/10/13 01:26:26;;;;;;;;;;;;;;;13.02;100.00;97905.81;1214177;75;3865880;-70
2023/10/13 01:29:00;;;;;;;;;;;;;;;12.76;100.00;97904.56;1227365;75;2911225;-69
2023/10/13 01:31:37;;;;;;;;;;;;;;;12.87;100.00;97903.94;1226860;75;2913391;-67
2023/10/13 01:34:09;;;;;;;;;;;;;;;12.76;100.00;97901.81;1227102;75;2916744;-66
2023/10/13 01:36:44;;;;;;;;;;;;;;;12.83;100.00;97911.63;1225556;83;2909698;-68
2023/10/13 01:39:20;;;;;;;;;;;;;;;12.86;100.00;97912.66;1227305;75;2918081;-70
2023/10/13 01:41:55;;;;;;;;;;;;;;;12.67;100.00;97904.72;1227215;75;2926903;-69
2023/10/13 01:44:27;;;;;;;;;;;;;;;12.85;100.00;97903.66;1225888;75;2924207;-71
2023/10/13 01:47:05;;;;;;;;;;;;;;;12.85;100.00;97903.66;1226860;83;2919617;-67
2023/10/13 01:49:41;;;;;;;;;;;;;;;12.77;100.00;97900.59;1226494;75;2914073;-69
2023/10/13 01:52:15;;;;;;;;;;;;;;;12.73;100.00;97896.53;1226731;75;2917359;-72
2023/10/13 01:54:51;;;;;;;;;;;;;;;12.70;100.00;97898.28;1226405;83;2920200;-71
2023/10/13 01:57:23;;;;;;;;;;;;;;;12.65;100.00;97890.72;1227087;75;2916923;-71
2023/10/13 02:00:03;;;;;;;;;;;;;;;12.64;100.00;97899.44;1226084;75;2916080;-66
2023/10/13 02:02:32;;;;;;;;;;;;;;;12.43;100.00;97895.97;1224853;75;2991891;-71
2023/10/13 02:05:05;;;;;;;;;;;;;;;12.38;100.00;97904.91;1228144;83;2837982;-69
2023/10/13 02:07:38;;;;;;;;;;;;;;;12.34;100.00;97896.88;1227531;75;2919053;-69
2023/10/13 02:10:14;;;;;;;;;;;;;;;12.62;100.00;97896.41;1211872;75;3973738;-69
2023/10/13 02:12:43;;;;;;;;;;;;;;;12.64;100.00;97902.19;1227211;75;2920707;-71
2023/10/13 02:15:21;;;;;;;;;;;;;;;12.50;100.00;97899.03;1214867;75;3885722;-76
2023/10/13 02:17:51;;;;;;;;;;;;;;;12.47;100.00;97891.78;1227484;75;2915542;-76
2023/10/13 02:20:30;;;;;;;;;;;;;;;12.51;100.00;97897.06;1227535;75;2920860;-68
2023/10/13 02:23:00;;;;;;;;;;;;;;;12.53;100.00;97900.84;1226940;83;2927192;-69
2023/10/13 02:25:42;;;;;;;;;;;;;;;12.46;100.00;97905.97;1226856;75;2915418;-72
2023/10/13 02:28:13;;;;;;;;;;;;;;;12.20;100.00;97892.22;1226809;75;2925229;-71
2023/10/13 02:30:49;;;;;;;;;;;;;;;12.27;100.00;97891.81;1226852;75;2922269;-69
2023/10/13 02:33:21;;;;;;;;;;;;;;;12.37;100.00;97884.94;1226815;75;2922494;-72
2023/10/13 02:35:55;;;;;;;;;;;;;;;12.42;100.00;97886.97;1227311;75;2916771;-70
2023/10/13 02:38:33;;;;;;;;;;;;;;;12.33;100.00;97889.88;1222746;75;2937332;-67
2023/10/13 02:41:19;;;;;;;;;;;;;;;12.23;100.00;97891.25;1212059;75;4018634;-69
2023/10/13 02:43:51;;;;;;;;;;;;;;;12.15;100.00;97891.66;1226941;75;2913881;-74
2023/10/13 02:46:28;;;;;;;;;;;;;;;12.12;100.00;97884.41;1226917;75;2929033;-69
2023/10/13 02:49:01;;;;;;;;;;;;;;;11.99;100.00;97891.44;1227153;75;2917200;-68
2023/10/13 02:51:35;;;;;;;;;;;;;;;11.82;100.00;97891.19;1227005;83;2918473;-71
2023/10/13 02:54:10;;;;;;;;;;;;;;;11.95;100.00;97886.16;1224703;75;2921040;-68
2023/10/13 02:56:49;;;;;;;;;;;;;;;12.04;100.00;97882.53;1226151;75;2930932;-72
2023/10/13 02:59:33;;;;;;;;;;;;;;;12.17;100.00;97882.19;1222834;75;3083541;-70
2023/10/13 03:02:17;;;;;;;;;;;;;;;12.13;100.00;97885.16;1225611;75;2919427;-71
2023/10/13 03:04:48;;;;;;;;;;;;;;;12.03;100.00;97889.25;1226572;75;2920829;-69
2023/10/13 03:07:28;;;;;;;;;;;;;;;11.92;100.00;97890.63;1226114;75;2917819;-70
2023/10/13 03:10:00;;;;;;;;;;;;;;;11.75;100.00;97888.84;1226165;83;2920623;-72
2023/10/13 03:12:35;;;;;;;;;;;;;;;11.57;100.00;97885.13;1222969;75;3087473;-73
2023/10/13 03:15:12;;;;;;;;;;;;;;;11.60;100.00;97883.44;1225669;83;2933338;-70
2023/10/13 03:17:46;;;;;;;;;;;;;;;11.81;100.00;97884.97;1225984;83;2926029;-70
2023/10/13 03:20:22;;;;;;;;;;;;;;;11.82;100.00;97886.47;1226076;75;2919320;-67
2023/10/13 03:22:56;;;;;;;;;;;;;;;11.86;100.00;97881.53;1226349;83;2921915;-68
2023/10/13 03:25:42;;;;;;;;;;;;;;;11.71;100.00;97886.31;1225132;75;2925329;-69
2023/10/13 03:28:17;;;;;;;;;;;;;;;11.65;100.00;97888.97;1226368;83;2923008;-72
2023/10/13 03:30:52;;;;;;;;;;;;;;;11.76;100.00;97884.88;1225607;75;2952954;-70
2023/10/13 03:33:29;;;;;;;;;;;;;;;11.41;100.00;97891.13;1225790;83;2930070;-74
2023/10/13 03:36:05;;;;;;;;;;;;;;;11.49;100.00;97886.75;1212322;75;3914497;-68
2023/10/13 03:38:39;;;;;;;;;;;;;;;11.43;100.00;97896.88;1223334;75;3030483;-72
2023/10/13 03:41:19;;;;;;;;;;;;;;;11.41;100.00;97886.38;1226009;75;2921954;-69
2023/10/13 03:44:07;;;;;;;;;;;;;;;11.43;100.00;97885.91;1225923;75;2928972;-70
2023/10/13 03:46:40;;;;;;;;;;;;;;;11.45;100.00;97870.50;1210805;75;4075387;-69
2023/10/13 03:49:14;;;;;;;;;;;;;;;11.40;100.00;97879.41;1226404;75;2919182;-68
2023/10/13 03:51:47;;;;;;;;;;;;;;;11.52;100.00;97883.81;1211794;75;3967473;-74
2023/10/13 03:54:20;;;;;;;;;;;;;;;11.47;100.00;97887.25;1224388;75;2918251;-69
2023/10/13 03:56:55;;;;;;;;;;;;;;;11.54;100.00;97888.81;1224267;75;2921101;-70
2023/10/13 03:59:35;;;;;;;;;;;;;;;11.50;100.00;97891.75;1222498;75;3098362;-68
2023/10/13 04:02:14;;;;;;;;;;;;;;;11.71;100.00;97891.78;1224810;75;2938506;-71
2023/10/13 04:04:53;;;;;;;;;;;;;;;11.61;100.00;97879.44;1225629;75;2923079;-70
2023/10/13 04:16:02;;;;;;;;;;;;;;;11.58;100.00;97894.09;1225764;75;2926477;-73
2023/10/13 04:18:50;;;;;;;;;;;;;;;11.67;100.00;97892.00;1222213;83;3100592;-69
2023/10/13 04:21:39;;;;;;;;;;;;;;;11.73;100.00;97897.56;1225942;75;2920829;-68
2023/10/13 04:30:10;;;;;;;;;;;;;;;11.80;100.00;97888.19;1217910;75;3095625;-70
2023/10/13 04:32:47;;;;;;;;;;;;;;;11.81;100.00;97890.44;1213981;75;3834103;-74
2023/10/13 04:35:24;;;;;;;;;;;;;;;11.85;100.00;97898.47;1225560;75;2922642;-76
2023/10/13 04:37:58;;;;;;;;;;;;;;;11.90;100.00;97904.03;1225113;75;2921261;-72
2023/10/13 04:40:35;;;;;;;;;;;;;;;11.80;100.00;97901.91;1224677;75;2995401;-71
2023/10/13 04:43:32;;;;;;;;;;;;;;;11.65;100.00;97901.94;1225338;83;2921599;-67
2023/10/13 04:46:14;;;;;;;;;;;;;;;11.62;100.00;97900.16;1225598;75;2947808;-70
2023/10/13 04:48:49;;;;;;;;;;;;;;;11.54;100.00;97905.25;1225342;75;2940970;-71
2023/10/13 04:51:45;;;;;;;;;;;;;;;11.59;100.00;97895.59;1226676;83;2932852;-66
2023/10/13 04:54:25;;;;;;;;;;;;;;;11.42;100.00;97900.84;1227059;75;2929825;-67
2023/10/13 05:00:56;;;;;;;;;;;;;;;11.69;100.00;97910.72;1223714;75;2925792;-68
2023/10/13 05:02:55;;;;;;;;;;;;;;;11.61;100.00;97910.34;1221442;75;3015371;-70
2023/10/13 05:47:01;;;;;;;;;;;;;;;12.06;100.00;97948.66;1225686;75;2913601;-74
2023/10/13 06:31:01;;;;;;;;;;;;;;;12.67;100.00;98005.59;1214766;75;2925721;-71
2023/10/13 06:33:33;;;;;;;;;;;;;;;12.84;100.00;98003.03;1224991;75;2924950;-67
2023/10/13 06:36:09;;;;;;;;;;;;;;;12.90;100.00;98006.63;1225313;75;2929960;-69
2023/10/13 06:38:41;;;;;;;;;;;;;;;13.09;100.00;98004.31;1189368;75;5871875;-73
2023/10/13 06:41:19;;;;;;;;;;;;;;;13.19;100.00;98013.91;1224379;75;2929266;-70
2023/10/13 06:44:05;;;;;;;;;;;;;;;13.25;100.00;98006.47;1225355;75;2925317;-70
2023/10/13 06:46:37;;;;;;;;;;;;;;;13.54;100.00;98013.78;1223153;75;2926264;-70
2023/10/13 06:49:10;;;;;;;;;;;;;;;13.75;100.00;98008.94;1226657;75;2916522;-70
2023/10/13 06:51:42;;;;;;;;;;;;;;;13.68;100.00;98020.38;1224782;75;2920950;-72
2023/10/13 06:54:19;;;;;;;;;;;;;;;14.04;100.00;98024.41;1226298;75;2924945;-72
2023/10/13 06:56:53;;;;;;;;;;;;;;;14.34;100.00;98029.59;1225959;83;2933772;-71
2023/10/13 06:59:32;;;;;;;;;;;;;;;14.46;100.00;98025.66;1225763;75;2918762;-68
2023/10/13 07:02:06;;;;;;;;;;;;;;;14.62;100.00;98023.50;1224878;83;2922032;-68
2023/10/13 07:04:39;;;;;;;;;;;;;;;14.73;100.00;98020.81;1225843;75;2921354;-67
2023/10/13 07:07:15;;;;;;;;;;;;;;;15.27;100.00;98028.22;1225376;75;2921876;-69
2023/10/13 07:09:55;;;;;;;;;;;;;;;20.87;77.15;98006.81;1225101;75;2921865;-68
2023/10/13 07:12:33;;;;;;;;;;;;;;;23.21;63.65;98016.63;1225097;83;2924970;-71
2023/10/13 07:15:10;;;;;;;;;;;;;;;23.55;60.39;98024.75;1226495;75;2920269;-69
2023/10/13 07:17:44;;;;;;;;;;;;;;;21.57;66.66;98020.97;1223123;75;2924705;-72
2023/10/13 07:20:23;;;;;;;;;;;;;;;20.41;70.97;98010.44;1207904;75;4113226;-69
2023/10/13 07:23:03;;;;;;;;;;;;;;;22.91;61.77;98012.44;1047711;75;10974235;-68
2023/10/13 07:25:40;;;;;;;;;;;;;;;25.91;53.77;98005.03;1223471;75;2940977;-72
2023/10/13 07:28:15;;;;;;;;;;;;;;;27.46;49.33;98001.28;1225012;75;2921923;-68
2023/10/13 07:31:11;;;;;;;;;;;;;;;28.26;46.79;98008.06;1223615;75;2930647;-69
2023/10/13 07:33:44;;;;;;;;;;;;;;;29.91;43.63;98009.97;1224236;75;2932030;-72
2023/10/13 07:36:27;;;;;;;;;;;;;;;29.11;43.73;98009.34;1224959;75;2926971;-71
2023/10/13 07:39:20;;;;;;;;;;;;;;;27.90;44.68;98000.44;1224828;75;2925332;-70
2023/10/13 07:41:55;;;;;;;;;;;;;;;30.19;41.56;97994.22;1225296;75;2919016;-73
2023/10/13 07:44:31;;;;;;;;;;;;;;;31.35;40.41;97986.09;1224127;75;2921785;-69
2023/10/13 07:47:07;;;;;;;;;;;;;;;31.56;39.72;97977.53;1224013;83;2928607;-69
2023/10/13 07:49:40;;;;;;;;;;;;;;;31.82;39.04;97992.53;1225635;75;2919116;-71
2023/10/13 07:55:00;;;;;;;;;;;;;;;31.22;39.20;97978.91;1223982;75;2926494;-70
2023/10/13 07:57:33;;;;;;;;;;;;;;;31.83;38.25;97976.28;1225273;75;2937192;-72
2023/10/13 08:00:11;;;;;;;;;;;;;;;32.51;37.58;97972.47;1223903;75;2925635;-75
2023/10/13 08:02:53;;;;;;;;;;;;;;;35.28;34.63;97961.13;1111074;75;13499864;-70
2023/10/13 08:05:29;;;;;;;;;;;;;;;33.55;35.15;97963.25;1224802;75;2919928;-68
2023/10/13 08:08:04;;;;;;;;;;;;;;;35.99;33.49;97958.59;1222429;75;3006218;-72
2023/10/13 08:10:39;;;;;;;;;;;;;;;32.28;37.63;97956.28;1197705;75;5056244;-72
2023/10/13 08:13:12;;;;;;;;;;;;;;;29.53;40.79;97963.63;1225081;75;2928053;-70
2023/10/13 08:15:47;;;;;;;;;;;;;;;29.49;41.20;97960.53;1224675;75;2923162;-70
2023/10/13 08:18:30;;;;;;;;;;;;;;;30.89;38.81;97954.28;1224518;75;2929638;-72
2023/10/13 08:21:06;;;;;;;;;;;;;;;29.04;42.46;97985.56;1225299;75;2917186;-71
2023/10/13 08:23:57;;;;;;;;;;;;;;;28.11;44.57;97988.66;1225800;75;2919144;-71
2023/10/13 08:26:57;;;;;;;;;;;;;;;24.51;51.50;97979.59;1225764;75;2920020;-72
2023/10/13 08:32:36;;;;;;;;;;;;;;;25.68;51.69;97976.41;1225105;83;2923306;-69
2023/10/13 08:35:22;;;;;;;;;;;;;;;26.07;48.87;97974.03;1222366;75;3078561;-72
2023/10/13 08:38:13;;;;;;;;;;;;;;;25.36;52.00;97975.13;1225976;83;2919546;-73
2023/10/13 08:43:43;;;;;;;;;;;;;;;24.22;52.64;97983.38;1225912;83;2923082;-71
2023/10/13 08:46:29;;;;;;;;;;;;;;;24.04;54.16;97978.94;1224841;75;2922172;-72
2023/10/13 08:49:17;;;;;;;;;;;;;;;25.21;52.60;97983.66;1226866;75;2922258;-72
2023/10/13 08:52:05;;;;;;;;;;;;;;;24.62;52.96;97982.00;1223037;83;3036868;-70
2023/10/13 08:54:49;;;;;;;;;;;;;;;23.38;57.17;97991.75;1226222;83;2918066;-70
2023/10/13 09:06:06;;;;;;;;;;;;;;;24.09;55.16;97988.44;1225920;83;2920539;-70
2023/10/13 09:09:04;;;;;;;;;;;;;;;24.69;54.32;97980.50;1225786;83;2917028;-69
2023/10/13 09:11:48;;;;;;;;;;;;;;;26.04;51.14;97978.75;1225208;83;2941495;-70
2023/10/13 09:17:34;;;;;;;;;;;;;;;25.86;50.16;97975.16;1225063;75;2921386;-70
2023/10/13 09:20:24;;;;;;;;;;;;;;;27.24;48.89;97984.16;1225515;83;2926432;-70
2023/10/13 09:23:07;;;;;;;;;;;;;;;27.65;48.75;97981.69;1226331;75;2925268;-73
2023/10/13 09:25:53;;;;;;;;;;;;;;;27.75;47.66;97974.00;1225723;75;2916444;-71
2023/10/13 09:28:25;;;;;;;;;;;;;;;28.07;47.27;97980.66;1226191;75;2919776;-69
2023/10/13 09:30:56;;;;;;;;;;;;;;;29.05;44.73;97972.94;1222613;75;2930866;-70
2023/10/13 09:33:35;;;;;;;;;;;;;;;28.53;44.81;97979.84;1225694;75;2922061;-69
2023/10/13 09:36:13;;;;;;;;;;;;;;;26.97;47.03;97972.88;1225346;75;2917793;-69
2023/10/13 09:39:12;;;;;;;;;;;;;;;27.40;45.62;97970.63;1225443;75;2923591;-74
2023/10/13 09:41:39;;;;;;;;;;;;;;;28.60;43.34;97975.38;1225289;75;2924489;-72
2023/10/13 09:44:10;;;;;;;;;;;;;;;28.87;42.65;97970.31;1225790;75;2923776;-69
2023/10/13 09:46:44;;;;;;;;;;;;;;;29.72;41.07;97977.66;1225407;75;2946959;-69
2023/10/13 09:49:33;;;;;;;;;;;;;;;29.01;41.72;97972.69;1225599;75;2932963;-73
2023/10/13 09:52:07;;;;;;;;;;;;;;;29.92;41.52;97963.44;1225666;83;2936694;-73
2023/10/13 09:54:44;;;;;;;;;;;;;;;29.28;42.12;97959.13;1225630;75;2935325;-70
2023/10/13 09:57:18;;;;;;;;;;;;;;;30.42;40.49;97967.44;1225507;83;2928493;-67
2023/10/13 09:59:55;;;;;;;;;;;;;;;30.26;40.20;97964.28;1225098;83;2921118;-75
2023/10/13 10:02:25;;;;;;;;;;;;;;;29.80;41.07;97960.56;1225250;75;2928165;-70
2023/10/13 10:05:12;;;;;;;;;;;;;;;30.93;39.99;97954.53;1226388;75;2800540;-71
2023/10/13 10:07:43;;;;;;;;;;;;;;;31.83;37.75;97962.13;1225981;75;2924312;-74
2023/10/13 10:10:24;;;;;;;;;;;;;;;32.09;38.28;97956.56;1225023;83;2931002;-69
2023/10/13 10:13:00;;;;;;;;;;;;;;;30.18;39.89;97960.91;1224560;75;2924645;-70
2023/10/13 10:15:43;;;;;;;;;;;;;;;29.68;41.21;97946.38;1225697;75;2923112;-72
2023/10/13 10:18:21;;;;;;;;;;;;;;;30.87;39.80;97951.31;1225314;75;2926959;-69
2023/10/13 10:20:55;;;;;;;;;;;;;;;30.13;39.82;97955.00;1225490;75;2925021;-67
2023/10/13 10:23:28;;;;;;;;;;;;;;;31.58;37.09;97951.41;1225400;75;2929799;-71
2023/10/13 10:26:08;;;;;;;;;;;;;;;31.21;37.09;97957.66;1225827;75;2921205;-73
2023/10/13 10:28:44;;;;;;;;;;;;;;;30.90;37.71;97941.59;1226006;75;2917722;-70
2023/10/13 10:31:19;;;;;;;;;;;;;;;31.08;37.26;97935.63;1225682;75;2920648;-71
2023/10/13 10:33:52;;;;;;;;;;;;;;;31.31;37.29;97941.28;1224556;75;2925400;-71
2023/10/13 10:36:32;;;;;;;;;;;;;;;32.11;36.74;97931.19;1225282;83;2937025;-73
2023/10/13 10:39:07;;;;;;;;;;;;;;;30.55;37.52;97933.75;1226233;75;2919894;-72
2023/10/13 10:41:45;;;;;;;;;;;;;;;30.97;37.57;97932.16;1225996;75;2929064;-71
2023/10/13 10:44:23;;;;;;;;;;;;;;;30.09;38.42;97929.31;1224450;75;2941052;-71
2023/10/13 10:47:01;;;;;;;;;;;;;;;30.11;38.59;97917.41;1226099;75;2923104;-73
2023/10/13 10:49:40;;;;;;;;;;;;;;;29.36;38.57;97918.72;1225752;83;2920090;-73
2023/10/13 10:52:18;;;;;;;;;;;;;;;30.31;38.70;97904.66;1225334;75;2914382;-73
2023/10/13 10:54:51;;;;;;;;;;;;;;;29.91;39.32;97908.34;1224780;75;2918134;-70
2023/10/13 10:57:28;;;;;;;;;;;;;;;30.10;39.10;97901.81;1226345;75;2925934;-70
2023/10/13 11:00:14;;;;;;;;;;;;;;;30.07;39.18;97900.22;1225866;75;2930687;-69
2023/10/13 11:02:56;;;;;;;;;;;;;;;30.07;38.78;97891.75;1226063;75;2921586;-71
2023/10/13 11:05:32;;;;;;;;;;;;;;;30.65;37.35;97896.19;1225849;75;2929950;-71
2023/10/13 11:08:09;;;;;;;;;;;;;;;30.83;36.68;97883.22;1224767;75;2941724;-72
2023/10/13 11:10:49;;;;;;;;;;;;;;;30.68;36.91;97884.38;1225371;75;2920325;-75
2023/10/13 11:13:24;;;;;;;;;;;;;;;31.18;35.34;97879.69;1225943;75;2918681;-74
2023/10/13 11:16:01;;;;;;;;;;;;;;;30.77;35.28;97879.97;1225299;83;2923556;-72
2023/10/13 11:18:40;;;;;;;;;;;;;;;31.95;34.83;97871.53;1224283;75;2969701;-71
2023/10/13 11:21:18;;;;;;;;;;;;;;;33.06;33.53;97876.28;1225726;83;2922963;-73
2023/10/13 11:24:08;;;;;;;;;;;;;;;31.89;33.04;97876.81;1226708;75;2914944;-73
2023/10/13 11:26:49;;;;;;;;;;;;;;;31.77;33.71;97876.81;1226080;75;2919070;-75
2023/10/13 11:29:23;;;;;;;;;;;;;;;31.29;33.76;97873.28;1225877;75;2923827;-69
2023/10/13 11:31:59;;;;;;;;;;;;;;;31.23;33.98;97875.03;1225259;75;2926182;-74
2023/10/13 11:34:39;;;;;;;;;;;;;;;31.67;35.23;97870.56;1226088;75;2932526;-76
2023/10/13 11:39:56;;;;;;;;;;;;;;;31.05;35.40;97852.00;1211259;75;4067216;-72
2023/10/13 11:42:28;;;;;;;;;;;;;;;31.23;35.49;97858.78;1225944;75;2926454;-68
2023/10/13 11:45:16;;;;;;;;;;;;;;;31.36;36.00;97848.94;1225699;75;2928989;-71
2023/10/13 11:47:59;;;;;;;;;;;;;;;31.18;34.46;97848.59;1184528;83;6100868;-70
2023/10/13 11:50:32;;;;;;;;;;;;;;;32.00;34.11;97842.09;1225638;75;2926559;-74
2023/10/13 11:53:07;;;;;;;;;;;;;;;32.23;33.34;97839.16;1226506;75;2921822;-71
2023/10/13 11:55:40;;;;;;;;;;;;;;;33.27;32.43;97837.66;1225949;75;2919819;-73
2023/10/13 11:58:12;;;;;;;;;;;;;;;32.55;34.07;97836.69;1226266;75;2917473;-70
2023/10/13 12:00:54;;;;;;;;;;;;;;;30.88;35.63;97836.88;1224980;75;2920442;-74
2023/10/13 12:06:33;;;;;;;;;;;;;;;32.52;34.51;97829.44;1226120;75;2919466;-69
2023/10/13 12:09:28;;;;;;;;;;;;;;;31.92;35.02;97822.50;1225832;83;2921077;-68
2023/10/13 12:12:04;;;;;;;;;;;;;;;31.28;35.55;97818.06;1224342;75;2919774;-71
2023/10/13 12:14:52;;;;;;;;;;;;;;;31.76;35.43;97816.66;1225468;75;2923357;-70
2023/10/13 12:17:31;;;;;;;;;;;;;;;33.04;34.14;97810.94;1226109;75;2917489;-70
2023/10/13 12:20:09;;;;;;;;;;;;;;;32.93;33.94;97799.66;1225678;75;2922966;-73
2023/10/13 12:22:42;;;;;;;;;;;;;;;32.54;33.78;97804.00;1223775;75;2940670;-76
2023/10/13 12:25:25;;;;;;;;;;;;;;;33.69;33.28;97801.47;1225501;83;2928711;-70
2023/10/13 12:28:12;;;;;;;;;;;;;;;34.11;32.90;97793.59;1224952;75;2922508;-71
2023/10/13 12:30:52;;;;;;;;;;;;;;;32.49;35.29;97793.78;1224842;75;2921729;-73
2023/10/13 12:33:36;;;;;;;;;;;;;;;32.56;35.42;97797.72;1225802;75;2924727;-72
2023/10/13 12:36:30;;;;;;;;;;;;;;;33.59;33.84;97787.50;1225704;75;2927676;-69
2023/10/13 12:50:14;;;;;;;;;;;;;;;34.27;33.43;97773.72;1225592;83;2922017;-71
2023/10/13 12:52:49;;;;;;;;;;;;;;;33.16;35.09;97779.63;1225560;83;2922670;-70
2023/10/13 12:55:24;;;;;;;;;;;;;;;33.05;35.69;97774.81;1224135;83;2918510;-69
2023/10/13 12:59:13;;;;;;;3.90;2.40;;;;;;;33.56;33.86;97762.47;1253069;75;2799320;-69
2023/10/13 13:01:45;;;;;;;5.70;2.40;;;;;;;32.35;33.87;97761.84;1226096;75;2925269;-69
2023/10/13 13:04:21;;;;;;;6.35;2.45;;;;;;;32.57;34.57;97756.66;1226491;75;2920602;-69
2023/10/13 13:06:54;;;;;;;6.50;2.40;;;;;;;32.34;34.13;97749.78;1225247;75;2932003;-71
2023/10/13 13:09:28;;;;;;;3.70;1.90;;;;;;;33.41;33.27;97746.81;1225339;75;2920598;-69
2023/10/13 13:12:01;;;;;;;4.70;2.10;;;;;;;32.96;33.88;97745.28;1225697;75;2926995;-72
2023/10/13 13:14:40;;;;;;;4.30;2.05;;;;;;;32.53;34.69;97745.13;1225515;75;2928182;-68
2023/10/13 13:17:12;;;;;;;4.20;2.15;;;;;;;33.35;34.25;97744.41;1224880;75;2924977;-72
2023/10/13 13:19:45;;;;;;;4.25;1.95;;;;;;;32.76;35.43;97747.03;1225758;75;2926316;-70
2023/10/13 13:22:18;;;;;;;3.10;1.60;;;;;;;32.98;34.98;97739.72;1225032;75;2922352;-68
2023/10/13 13:24:52;;;;;;;3.20;1.80;;;;;;;32.74;35.03;97739.19;1225275;75;2924546;-70
2023/10/13 13:27:25;;;;;;;3.95;1.60;;;;;;;33.92;33.55;97730.19;1225950;75;2924111;-71
2023/10/13 13:30:00;;;;;;;5.45;1.90;;;;;;;33.13;34.04;97732.69;1225375;75;2916820;-71
2023/10/13 13:32:33;;;;;;;6.00;2.30;;;;;;;32.61;34.81;97737.78;1226798;75;2928313;-70
2023/10/13 13:35:13;;;;;;;2.95;1.75;;;;;;;32.36;35.10;97727.22;1224848;75;2916453;-70
2023/10/13 13:37:46;;;;;;;3.40;1.80;;;;;;;31.49;36.21;97728.75;1220974;75;3057203;-70
2023/10/13 13:40:22;;;;;;;2.30;1.55;;;;;;;33.20;34.53;97722.38;1225334;75;2925860;-67
2023/10/13 13:42:57;;;;;;;2.45;1.75;;;;;;;33.42;34.43;97725.59;1226253;75;2911028;-69
2023/10/13 13:45:34;;;;;;;5.60;2.45;;;;;;;32.30;35.92;97714.81;1226799;75;2911037;-69
2023/10/13 13:48:14;;;;;;;4.00;2.30;;;;;;;32.11;36.89;97721.59;1226516;75;2911272;-71
2023/10/13 13:50:52;;;;;;;3.60;2.05;;;;;;;32.26;37.16;97715.34;1226173;75;2922526;-70
2023/10/13 13:53:31;;;;;;;4.40;2.10;;;;;;;31.82;37.31;97709.44;1226265;75;2925578;-69
2023/10/13 13:56:05;;;;;;;2.90;1.90;;;;;;;32.05;36.81;97707.84;1226412;75;2925389;-72
2023/10/13 13:58:38;;;;;;;4.65;2.25;;;;;;;30.96;38.42;97707.34;1225644;75;2919623;-72
2023/10/13 14:01:18;;;;;;;3.50;2.00;;;;;;;31.48;38.90;97708.19;1226263;75;2914026;-70
2023/10/13 14:03:56;;;;;;;4.10;2.00;;;;;;;30.61;39.66;97701.69;1226308;75;2916265;-71
2023/10/13 14:06:29;;;;;;;3.00;1.60;;;;;;;31.10;39.01;97706.69;1226828;75;2921589;-68
2023/10/13 14:09:05;;;;;;;4.15;2.00;;;;;;;30.55;39.43;97702.06;1225437;75;2927471;-71
2023/10/13 14:14:33;;;;;;;5.95;2.40;;;;;;;29.65;40.87;97701.31;1225805;75;2919697;-70
2023/10/13 14:17:09;;;;;;;3.80;2.00;;;;;;;29.27;41.42;97697.47;1224593;75;2928983;-70
2023/10/13 14:19:45;;;;;;;4.35;1.90;;;;;;;29.83;41.66;97690.50;1224114;75;2958186;-72
2023/10/13 14:22:24;;;;;;;3.85;2.30;;;;;;;29.55;41.41;97695.75;1225245;75;2924681;-72
2023/10/13 14:24:58;;;;;;;4.70;1.90;;;;;;;29.53;40.55;97687.16;1224858;83;2922996;-68
2023/10/13 14:27:30;;;;;;;5.30;2.30;;;;;;;29.50;41.35;97694.75;1225591;75;2916703;-68
2023/10/13 14:30:03;;;;;;;3.35;1.90;;;;;;;29.82;40.91;97689.00;1225083;75;2922906;-68
2023/10/13 14:32:40;;;;;;;4.10;1.80;;;;;;;29.03;41.68;97688.88;1224626;75;2914489;-73
2023/10/13 14:35:14;;;;;;;5.25;2.15;;;;;;;28.84;42.37;97681.28;1224929;75;2912590;-68
2023/10/13 14:37:47;;;;;;;7.05;2.40;;;;;;;28.39;42.02;97683.09;1224617;75;2922668;-69
2023/10/13 14:40:21;;;;;;;5.55;2.40;;;;;;;28.16;42.57;97684.34;1224802;75;2919771;-69
2023/10/13 14:42:54;;;;;;;4.65;2.20;;;;;;;28.41;42.61;97675.53;1225435;75;2926882;-67
2023/10/13 14:45:28;;;;;;;4.40;2.35;;;;;;;28.51;43.29;97675.50;1223806;75;2913229;-70
2023/10/13 14:48:05;;;;;;;3.40;2.05;;;;;;;28.40;43.62;97679.66;1224501;75;2918255;-69
2023/10/13 14:50:45;;;;;;;5.90;2.35;;;;;;;28.39;44.71;97677.47;1225211;75;2922499;-69
2023/10/13 14:53:19;;;;;;;6.50;2.55;;;;;;;28.24;44.96;97679.31;1224866;75;2915467;-68
2023/10/13 14:55:52;;;;;;;6.05;2.65;;;;;;;27.91;46.01;97679.09;1225325;75;2923565;-73
2023/10/13 14:58:26;;;;;;;5.25;2.65;;;;;;;27.62;46.20;97685.47;1224884;75;2919618;-71
2023/10/13 15:01:00;;;;;;;4.85;2.20;;;;;;;27.55;45.80;97680.75;1225859;75;2906864;-70
2023/10/13 15:03:37;;;;;;;3.60;2.25;;;;;;;27.50;46.49;97683.88;1225174;75;2916475;-70
2023/10/13 15:06:10;;;;;;;5.30;2.50;;;;;;;27.41;46.74;97677.63;1225499;75;2921580;-68
2023/10/13 15:08:45;;;;;;;6.30;2.30;;;;;;;27.72;46.15;97679.09;1224993;75;2920334;-67
2023/10/13 15:11:19;;;;;;;2.80;1.90;;;;;;;27.62;47.43;97674.22;1223900;75;2925897;-70
2023/10/13 15:13:52;;;;;;;5.85;2.50;;;;;;;27.24;48.51;97674.97;1224519;75;2920661;-73
2023/10/13 15:16:28;;;;;;;5.20;2.25;;;;;;;27.32;48.68;97669.19;1224970;75;2922764;-72
2023/10/13 15:19:04;;;;;;;5.35;2.45;;;;;;;26.84;49.85;97672.66;1224655;75;2922315;-71